Time,TemperatureF,DewpointF,PressureIn,WindDirection,WindDirectionDegrees,WindSpeedMPH,WindSpeedGustMPH,Humidity,HourlyPrecipIn,Conditions,Clouds,dailyrainin,SoftwareType,DateUTC
2013-02-13 00:12:00,35.5,35.0,29.73,NE,43,2.0,2.0,96,0.04,,,0.00,weatherlink.com 1.10,2013-02-13 05:12:00,
2013-02-13 00:27:00,35.3,34.0,29.73,WSW,244,0.0,1.0,95,0.05,,,0.01,weatherlink.com 1.10,2013-02-13 05:27:00,
2013-02-13 00:42:00,35.0,34.0,29.72,WSW,244,0.0,1.0,95,0.05,,,0.04,weatherlink.com 1.10,2013-02-13 05:42:00,
2013-02-13 00:57:00,34.7,34.0,29.71,WSW,244,0.0,2.0,96,0.04,,,0.04,weatherlink.com 1.10,2013-02-13 05:57:00,
2013-02-13 01:12:00,34.3,33.0,29.70,NE,38,0.0,3.0,96,0.04,,,0.04,weatherlink.com 1.10,2013-02-13 06:12:00,
2013-02-13 01:27:00,34.1,33.0,29.69,NNW,336,1.0,2.0,96,0.03,,,0.05,weatherlink.com 1.10,2013-02-13 06:27:00,
2013-02-13 01:42:00,34.1,33.0,29.68,NNW,336,0.0,1.0,96,0.01,,,0.05,weatherlink.com 1.10,2013-02-13 06:42:00,
2013-02-13 01:57:00,34.1,33.0,29.68,NNW,336,0.0,2.0,97,0.01,,,0.05,weatherlink.com 1.10,2013-02-13 06:57:00,
2013-02-13 02:12:00,34.0,33.0,29.67,ENE,68,0.0,1.0,97,0.03,,,0.07,weatherlink.com 1.10,2013-02-13 07:12:00,
2013-02-13 02:27:00,34.0,33.0,29.66,East,79,0.0,2.0,97,0.03,,,0.08,weatherlink.com 1.10,2013-02-13 07:27:00,
2013-02-13 02:42:00,33.9,33.0,29.66,ENE,63,0.0,2.0,97,0.03,,,0.08,weatherlink.com 1.10,2013-02-13 07:42:00,
2013-02-13 02:58:00,34.0,33.0,29.64,ENE,63,0.0,1.0,97,0.03,,,0.08,weatherlink.com 1.10,2013-02-13 07:58:00,
2013-02-13 03:12:00,34.0,33.0,29.65,ENE,63,0.0,2.0,97,0.01,,,0.08,weatherlink.com 1.10,2013-02-13 08:12:00,
2013-02-13 03:27:00,34.0,33.0,29.64,ENE,63,0.0,2.0,97,0.00,,,0.08,weatherlink.com 1.10,2013-02-13 08:27:00,
2013-02-13 03:42:00,34.0,33.0,29.63,ENE,63,0.0,2.0,97,0.00,,,0.08,weatherlink.com 1.10,2013-02-13 08:42:00,
2013-02-13 03:57:00,34.1,34.0,29.62,South,181,3.0,4.0,98,0.02,,,0.10,weatherlink.com 1.10,2013-02-13 08:57:00,
2013-02-13 04:12:00,34.2,34.0,29.61,South,186,0.0,2.0,98,0.02,,,0.10,weatherlink.com 1.10,2013-02-13 09:12:00,
2013-02-13 04:27:00,34.1,34.0,29.61,South,186,0.0,1.0,98,0.02,,,0.10,weatherlink.com 1.10,2013-02-13 09:27:00,
2013-02-13 04:42:00,34.3,34.0,29.60,NNE,30,2.0,4.0,98,0.04,,,0.12,weatherlink.com 1.10,2013-02-13 09:42:00,
2013-02-13 04:58:00,34.3,34.0,29.61,South,185,0.0,2.0,98,0.04,,,0.14,weatherlink.com 1.10,2013-02-13 09:58:00,
2013-02-13 05:13:00,35.1,35.0,29.59,SSW,195,0.0,7.0,98,0.04,,,0.14,weatherlink.com 1.10,2013-02-13 10:13:00,
2013-02-13 05:28:00,35.6,35.0,29.59,SSW,207,0.0,6.0,98,0.04,,,0.14,weatherlink.com 1.10,2013-02-13 10:28:00,
2013-02-13 05:43:00,37.3,37.0,29.56,South,187,5.0,10.0,99,0.02,,,0.14,weatherlink.com 1.10,2013-02-13 10:43:00,
2013-02-13 05:58:00,38.8,39.0,29.57,North,6,5.0,8.0,99,0.00,,,0.14,weatherlink.com 1.10,2013-02-13 10:58:00,
2013-02-13 06:13:00,41.7,42.0,29.55,East,96,1.0,5.0,99,0.00,,,0.14,weatherlink.com 1.10,2013-02-13 11:13:00,
2013-02-13 06:28:00,41.2,41.0,29.56,NNE,33,4.0,5.0,99,0.00,,,0.14,weatherlink.com 1.10,2013-02-13 11:28:00,
2013-02-13 06:43:00,43.4,43.0,29.55,ENE,61,7.0,7.0,99,0.00,,,0.14,weatherlink.com 1.10,2013-02-13 11:43:00,
2013-02-13 06:58:00,43.3,43.0,29.57,South,174,2.0,7.0,99,0.00,,,0.14,weatherlink.com 1.10,2013-02-13 11:58:00,
2013-02-13 07:13:00,44.0,44.0,29.56,WSW,243,4.0,5.0,99,0.00,,,0.14,weatherlink.com 1.10,2013-02-13 12:13:00,
2013-02-13 07:28:00,44.2,44.0,29.57,North,360,0.0,7.0,98,0.00,,,0.14,weatherlink.com 1.10,2013-02-13 12:28:00,
2013-02-13 07:58:00,45.5,44.0,29.55,East,82,6.0,9.0,95,0.00,,,0.14,weatherlink.com 1.10,2013-02-13 12:58:00,
2013-02-13 08:13:00,45.8,44.0,29.56,North,8,4.0,10.0,94,0.00,,,0.14,weatherlink.com 1.10,2013-02-13 13:13:00,
2013-02-13 08:28:00,45.8,44.0,29.56,SSW,210,5.0,8.0,93,0.00,,,0.14,weatherlink.com 1.10,2013-02-13 13:28:00,
2013-02-13 08:43:00,46.3,44.0,29.56,WNW,290,1.0,10.0,92,0.00,,,0.14,weatherlink.com 1.10,2013-02-13 13:43:00,
2013-02-13 08:58:00,46.3,44.0,29.55,SW,218,3.0,9.0,92,0.00,,,0.14,weatherlink.com 1.10,2013-02-13 13:58:00,
2013-02-13 09:14:00,46.3,44.0,29.54,West,275,0.0,10.0,91,0.00,,,0.14,weatherlink.com 1.10,2013-02-13 14:14:00,
2013-02-13 09:28:00,46.3,44.0,29.56,South,171,5.0,10.0,90,0.00,,,0.14,weatherlink.com 1.10,2013-02-13 14:28:00,
2013-02-13 09:43:00,46.1,43.0,29.55,NNW,330,7.0,10.0,90,0.00,,,0.14,weatherlink.com 1.10,2013-02-13 14:43:00,
2013-02-13 09:58:00,46.0,43.0,29.55,SSW,211,2.0,7.0,89,0.00,,,0.14,weatherlink.com 1.10,2013-02-13 14:58:00,
2013-02-13 10:13:00,45.6,43.0,29.55,NW,312,4.0,7.0,89,0.00,,,0.14,weatherlink.com 1.10,2013-02-13 15:13:00,
2013-02-13 10:28:00,45.5,42.0,29.54,ESE,103,7.0,14.0,88,0.00,,,0.14,weatherlink.com 1.10,2013-02-13 15:28:00,
2013-02-13 10:44:00,45.5,42.0,29.54,West,266,3.0,8.0,88,0.00,,,0.14,weatherlink.com 1.10,2013-02-13 15:44:00,
2013-02-13 10:58:00,45.1,42.0,29.55,SSE,148,6.0,17.0,87,0.00,,,0.14,weatherlink.com 1.10,2013-02-13 15:58:00,
2013-02-13 11:14:00,44.9,41.0,29.54,SSE,163,9.0,12.0,85,0.00,,,0.14,weatherlink.com 1.10,2013-02-13 16:14:00,
2013-02-13 11:28:00,44.7,40.0,29.54,SSW,213,6.0,18.0,84,0.00,,,0.14,weatherlink.com 1.10,2013-02-13 16:28:00,
2013-02-13 11:59:00,44.2,39.0,29.54,SSE,168,4.0,8.0,82,0.00,,,0.14,weatherlink.com 1.10,2013-02-13 16:59:00,
2013-02-13 12:14:00,43.9,38.0,29.52,NW,322,1.0,10.0,80,0.00,,,0.14,weatherlink.com 1.10,2013-02-13 17:14:00,
2013-02-13 12:44:00,43.6,37.0,29.50,ENE,63,10.0,17.0,76,0.00,,,0.14,weatherlink.com 1.10,2013-02-13 17:44:00,
2013-02-13 12:59:00,43.6,37.0,29.51,WSW,241,6.0,12.0,77,0.00,,,0.14,weatherlink.com 1.10,2013-02-13 17:59:00,
2013-02-13 13:14:00,44.2,37.0,29.50,South,172,4.0,14.0,75,0.00,,,0.14,weatherlink.com 1.10,2013-02-13 18:14:00,
2013-02-13 13:29:00,43.3,38.0,29.51,SSW,203,2.0,13.0,80,0.00,,,0.14,weatherlink.com 1.10,2013-02-13 18:29:00,
2013-02-13 13:45:00,42.4,37.0,29.51,NW,319,3.0,19.0,82,0.01,,,0.15,weatherlink.com 1.10,2013-02-13 18:45:00,
2013-02-13 13:59:00,41.9,37.0,29.51,SSE,167,7.0,17.0,82,0.01,,,0.15,weatherlink.com 1.10,2013-02-13 18:59:00,
2013-02-13 14:14:00,41.9,37.0,29.52,South,179,7.0,17.0,81,0.01,,,0.15,weatherlink.com 1.10,2013-02-13 19:14:00,
2013-02-13 14:29:00,41.7,37.0,29.51,ESE,110,2.0,13.0,84,0.02,,,0.16,weatherlink.com 1.10,2013-02-13 19:29:00,
2013-02-13 14:44:00,42.4,38.0,29.52,WSW,252,2.0,9.0,83,0.01,,,0.16,weatherlink.com 1.10,2013-02-13 19:44:00,
2013-02-13 14:59:00,41.8,37.0,29.51,NW,314,1.0,9.0,84,0.01,,,0.16,weatherlink.com 1.10,2013-02-13 19:59:00,
2013-02-13 15:14:00,40.9,37.0,29.52,South,186,1.0,8.0,87,0.02,,,0.17,weatherlink.com 1.10,2013-02-13 20:14:00,
2013-02-13 15:29:00,40.2,37.0,29.52,West,270,2.0,6.0,89,0.02,,,0.18,weatherlink.com 1.10,2013-02-13 20:29:00,
2013-02-13 15:44:00,39.6,37.0,29.53,SW,222,3.0,6.0,90,0.03,,,0.19,weatherlink.com 1.10,2013-02-13 20:44:00,
2013-02-13 15:59:00,39.8,35.0,29.54,NNW,344,2.0,9.0,83,0.03,,,0.19,weatherlink.com 1.10,2013-02-13 20:59:00,
2013-02-13 16:14:00,39.7,35.0,29.55,SSW,205,3.0,10.0,83,0.02,,,0.19,weatherlink.com 1.10,2013-02-13 21:14:00,
2013-02-13 16:29:00,39.4,35.0,29.56,SW,232,0.0,11.0,83,0.01,,,0.19,weatherlink.com 1.10,2013-02-13 21:29:00,
2013-02-13 16:59:00,38.4,34.0,29.57,SW,220,3.0,7.0,85,0.01,,,0.20,weatherlink.com 1.10,2013-02-13 21:59:00,
2013-02-13 17:14:00,37.4,34.0,29.57,SSW,194,9.0,12.0,88,0.01,,,0.20,weatherlink.com 1.10,2013-02-13 22:14:00,
2013-02-13 17:30:00,36.8,33.0,29.59,South,186,8.0,9.0,85,0.01,,,0.20,weatherlink.com 1.10,2013-02-13 22:30:00,
2013-02-13 17:45:00,35.9,32.0,29.59,South,183,0.0,10.0,87,0.00,,,0.20,weatherlink.com 1.10,2013-02-13 22:45:00,
2013-02-13 17:59:00,34.8,32.0,29.61,SSW,202,7.0,13.0,89,0.00,,,0.20,weatherlink.com 1.10,2013-02-13 22:59:00,
2013-02-13 18:14:00,34.1,31.0,29.63,SSW,195,8.0,9.0,88,0.00,,,0.20,weatherlink.com 1.10,2013-02-13 23:14:00,
2013-02-13 18:29:00,33.5,31.0,29.64,SSW,198,2.0,10.0,90,0.00,,,0.20,weatherlink.com 1.10,2013-02-13 23:29:00,
2013-02-13 18:44:00,33.3,30.0,29.64,South,184,0.0,7.0,88,0.00,,,0.20,weatherlink.com 1.10,2013-02-13 23:44:00,
2013-02-13 18:59:00,33.4,30.0,29.65,SSW,193,0.0,2.0,87,0.00,,,0.20,weatherlink.com 1.10,2013-02-13 23:59:00,
2013-02-13 19:15:00,33.5,30.0,29.66,South,185,0.0,4.0,88,0.00,,,0.20,weatherlink.com 1.10,2013-02-14 00:15:00,
2013-02-13 19:30:00,33.2,30.0,29.66,SSW,196,1.0,7.0,86,0.00,,,0.20,weatherlink.com 1.10,2013-02-14 00:30:00,
2013-02-13 19:44:00,33.2,29.0,29.66,SE,144,0.0,3.0,83,0.00,,,0.20,weatherlink.com 1.10,2013-02-14 00:44:00,
2013-02-13 19:59:00,33.3,29.0,29.67,NE,52,2.0,3.0,83,0.00,,,0.20,weatherlink.com 1.10,2013-02-14 00:59:00,
2013-02-13 20:14:00,33.2,29.0,29.67,NE,39,0.0,2.0,83,0.00,,,0.20,weatherlink.com 1.10,2013-02-14 01:14:00,
2013-02-13 20:30:00,33.0,29.0,29.68,South,169,1.0,3.0,84,0.00,,,0.20,weatherlink.com 1.10,2013-02-14 01:30:00,
2013-02-13 20:45:00,32.6,29.0,29.68,SSW,213,1.0,3.0,86,0.00,,,0.20,weatherlink.com 1.10,2013-02-14 01:45:00,
2013-02-13 20:59:00,31.8,30.0,29.68,SSE,156,2.0,2.0,91,0.00,,,0.20,weatherlink.com 1.10,2013-02-14 01:59:00,
2013-02-13 21:15:00,31.2,28.0,29.69,East,87,1.0,4.0,89,0.00,,,0.20,weatherlink.com 1.10,2013-02-14 02:15:00,
2013-02-13 21:30:00,31.3,29.0,29.70,NW,319,0.0,3.0,91,0.00,,,0.20,weatherlink.com 1.10,2013-02-14 02:30:00,
2013-02-13 21:45:00,30.7,29.0,29.70,NW,324,0.0,2.0,93,0.00,,,0.20,weatherlink.com 1.10,2013-02-14 02:45:00,
2013-02-13 22:00:00,30.5,29.0,29.71,NNW,340,0.0,2.0,93,0.00,,,0.20,weatherlink.com 1.10,2013-02-14 03:00:00,
2013-02-13 22:15:00,30.5,28.0,29.71,NNW,340,0.0,2.0,89,0.00,,,0.20,weatherlink.com 1.10,2013-02-14 03:15:00,
2013-02-13 22:30:00,30.4,28.0,29.71,NNW,340,0.0,2.0,89,0.00,,,0.20,weatherlink.com 1.10,2013-02-14 03:30:00,
2013-02-13 22:45:00,30.4,27.0,29.71,North,1,1.0,4.0,87,0.00,,,0.20,weatherlink.com 1.10,2013-02-14 03:45:00,
2013-02-13 23:00:00,29.6,28.0,29.71,North,1,1.0,2.0,93,0.00,,,0.20,weatherlink.com 1.10,2013-02-14 04:00:00,
2013-02-13 23:15:00,29.0,28.0,29.72,North,1,0.0,3.0,94,0.00,,,0.20,weatherlink.com 1.10,2013-02-14 04:15:00,
2013-02-13 23:45:00,29.1,27.0,29.72,ENE,74,2.0,4.0,91,0.00,,,0.20,weatherlink.com 1.10,2013-02-14 04:45:00,